• Join FlightAware (Why Join?)
  • Login
  • US Flag 
03:27PM EDT


 

Airport Tracker/Info


-or-


 

Live Flight TrackerFlight Track Log ✈ N379B ✈ 11-Jul-2014 ✈ KOJC - KEAR

Flight Track Log - Related Links

Times and Time Zones

All times are in EDT time to prevent confusion due to time zone crossing. See the N379B flight status page for this flight to view local times or setup timezone preferences in your user account.

Time Position Orientation Groundspeed Altitude Reporting Facility
EDT Latitude Longitude Course Direction KTS MPH feet Rate Location/Type
06:38PM 38.8167 -94.7667 216° Southwest 197 227 3,500  Level Kansas City TRACON
06:39PM 38.8925 -94.8167 333° Northwest 245 282 6,800 2,760 Climbing Kansas City Center
06:40PM 38.9197 -94.9008 293° West 255 293 9,900 2,280 Climbing Kansas City Center
06:41PM 38.9486 -94.9942 292° West 278 320 11,500 1,680 Climbing Kansas City Center
06:42PM 38.9808 -95.0939 293° West 299 344 13,400 2,340 Climbing Kansas City Center
06:44PM 39.0308 -95.1981 302° West 300 345 16,400 2,340 Climbing Kansas City Center
06:45PM 39.0717 -95.2847 301° West 296 341 18,200 1,680 Climbing Kansas City Center
06:46PM 39.1181 -95.3831 301° West 308 354 19,900 1,440 Climbing Kansas City Center
06:47PM 39.1594 -95.4728 301° West 316 364 21,200 1,380 Climbing Kansas City Center
06:48PM 39.2067 -95.5717 302° West 319 367 22,800 1,500 Climbing Kansas City Center
06:49PM 39.2633 -95.6922 301° West 323 372 24,300 1,200 Climbing Kansas City Center
06:50PM 39.3117 -95.7983 301° West 339 390 25,300 960 Climbing Kansas City Center
06:51PM 39.3617 -95.9056 301° West 344 396 26,300 900 Climbing Kansas City Center
06:52PM 39.4133 -96.0153 301° West 353 406 27,300 780 Climbing Kansas City Center
06:53PM 39.4644 -96.1272 301° West 358 412 28,000 300 Climbing Kansas City Center
06:54PM 39.5189 -96.2514 300° West 377 434 28,000  Level Kansas City Center
06:55PM 39.5742 -96.3672 302° West 388 447 28,000  Level Kansas City Center
06:56PM 39.6411 -96.5150 301° West 395 455 28,000  Level Kansas City Center
06:57PM 39.6967 -96.6378 300° West 395 455 28,000  Level Kansas City Center
06:58PM 39.7522 -96.7600 301° West 395 455 28,000  Level Kansas City Center
06:59PM 39.8131 -96.8944 301° West 395 455 28,000  Level Kansas City Center
07:00PM 39.8689 -97.0189 300° West 395 455 28,000  Level Kansas City Center
07:01PM 39.9242 -97.1425 300° West 395 455 28,000  Level Kansas City Center
07:02PM 39.9689 -97.2467 299° West 394 453 28,000  Level Minneapolis Center
07:03PM 40.0322 -97.3908 300° West 394 453 28,000  Level Minneapolis Center
07:04PM 40.0867 -97.5142 300° West 394 453 28,000 -300 Level Minneapolis Center
07:05PM 40.1389 -97.6350 300° West 388 447 27,400 -1,320 Descending Minneapolis Center
07:06PM 40.1875 -97.7558 298° West 380 437 25,300 -2,340 Descending Minneapolis Center
07:07PM 40.2428 -97.8994 297° West 372 428 22,600 -2,520 Descending Minneapolis Center
07:08PM 40.2878 -98.0158 297° West 363 418 20,100 -2,280 Descending Minneapolis Center
07:09PM 40.3303 -98.1275 297° West 350 403 17,900 -2,040 Descending Minneapolis Center
07:10PM 40.3719 -98.2356 297° West 337 388 15,900 -1,980 Descending Minneapolis Center
07:11PM 40.4131 -98.3439 297° West 334 384 13,900 -1,920 Descending Minneapolis Center
07:12PM 40.4533 -98.4503 296° West 331 381 12,000 -1,860 Descending Minneapolis Center
07:14PM 40.5177 -98.5542 309° West  Level FlightAware Approximate
07:21PM 40.7167 -99.0000 303° West  Level FlightAware Approximate
07:22PM 40.7270 -99.0068 303° West  Level Estimated
07:23PM 40.7270 -99.0068 303° West  Level Estimated
07:24PM 40.7270 -99.0068 303° West  Level Estimated